createdAt,value
2019-02-16T00:02:19.275Z,95.63
2019-02-16T00:04:49.440Z,89.97
2019-02-16T00:07:19.633Z,89.67
2019-02-16T00:09:49.801Z,85.07
2019-02-16T00:12:19.978Z,91.87
2019-02-16T00:14:50.184Z,88.80
2019-02-16T00:17:20.272Z,87.97
2019-02-16T00:19:51.412Z,72.90
2019-02-16T00:22:21.594Z,76.43
2019-02-16T00:24:51.809Z,78.17
2019-02-16T00:27:22.029Z,83.47
2019-02-16T00:29:52.276Z,91.93
2019-02-16T00:32:22.406Z,95.70
2019-02-16T00:34:52.691Z,96.43
2019-02-16T00:37:22.994Z,92.00
2019-02-16T00:39:53.188Z,86.47
2019-02-16T00:42:23.281Z,79.73
2019-02-16T00:44:53.537Z,68.00
2019-02-16T00:47:23.662Z,87.57
2019-02-16T00:49:53.821Z,84.03
2019-02-16T00:52:24.088Z,77.63
2019-02-16T00:54:54.185Z,94.37
2019-02-16T00:57:24.410Z,82.53
2019-02-16T00:59:54.660Z,104.33
2019-02-16T01:02:24.788Z,88.77
2019-02-16T01:04:55.006Z,114.37
2019-02-16T01:07:25.208Z,96.73
2019-02-16T01:09:55.395Z,85.43
2019-02-16T01:12:25.725Z,83.43
2019-02-16T01:14:55.938Z,110.23
2019-02-16T01:17:26.147Z,91.73
2019-02-16T01:19:56.358Z,82.43
2019-02-16T01:22:26.774Z,82.93
2019-02-16T01:24:56.854Z,94.90
2019-02-16T01:27:27.029Z,84.93
2019-02-16T01:29:57.271Z,78.07
2019-02-16T01:32:27.420Z,84.97
2019-02-16T01:34:57.607Z,85.97
2019-02-16T01:37:27.874Z,85.30
2019-02-16T01:39:58.083Z,86.77
2019-02-16T01:42:28.233Z,85.53
2019-02-16T01:44:58.434Z,95.43
2019-02-16T01:47:28.573Z,105.33
2019-02-16T01:49:58.764Z,83.13
2019-02-16T01:52:29.004Z,112.50
2019-02-16T01:54:59.241Z,122.23
2019-02-16T01:57:29.425Z,96.87
2019-02-16T01:59:59.664Z,114.63
2019-02-16T02:02:29.917Z,105.67
2019-02-16T02:05:00.073Z,93.13
2019-02-16T02:07:30.332Z,104.50
2019-02-16T02:10:00.600Z,96.30
2019-02-16T02:12:30.771Z,115.53
2019-02-16T02:15:01.182Z,108.27
2019-02-16T02:17:31.333Z,100.13
2019-02-16T02:20:01.388Z,85.90
2019-02-16T02:22:31.620Z,89.33
2019-02-16T02:25:02.572Z,96.47
2019-02-16T02:27:32.702Z,91.60
2019-02-16T02:30:02.954Z,101.63
2019-02-16T02:32:33.204Z,109.50
2019-02-16T02:35:03.404Z,107.07
2019-02-16T02:37:33.643Z,96.60
2019-02-16T02:40:03.864Z,122.80
2019-02-16T02:42:34.020Z,111.07
2019-02-16T02:45:04.209Z,117.67
2019-02-16T02:47:34.493Z,106.60
2019-02-16T02:50:04.905Z,93.07
2019-02-16T02:52:35.144Z,94.47
2019-02-16T02:55:05.790Z,138.97
2019-02-16T02:57:35.960Z,134.27
2019-02-16T03:00:07.005Z,136.23
2019-02-16T03:02:37.177Z,127.73
2019-02-16T03:05:08.396Z,151.60
2019-02-16T03:07:38.723Z,119.90
2019-02-16T03:10:08.967Z,127.27
2019-02-16T03:12:39.040Z,109.77
2019-02-16T03:15:09.428Z,112.40
2019-02-16T03:17:39.649Z,91.70
2019-02-16T03:20:09.803Z,117.00
2019-02-16T03:23:25.827Z,172.23
2019-02-16T03:26:40.899Z,150.67
2019-02-16T03:29:35.182Z,151.97
2019-02-16T03:32:26.611Z,153.57
2019-02-16T03:35:13.411Z,171.17
2019-02-16T03:38:37.721Z,151.43
2019-02-16T03:41:07.901Z,136.53
2019-02-16T03:43:38.166Z,147.70
2019-02-16T03:46:08.315Z,147.70
2019-02-16T03:48:38.583Z,130.13
2019-02-16T03:51:08.841Z,124.47
2019-02-16T03:53:38.991Z,133.57
2019-02-16T03:56:09.192Z,150.13
2019-02-16T03:58:39.405Z,139.30
2019-02-16T04:01:09.613Z,148.23
2019-02-16T04:03:39.842Z,142.80
2019-02-16T04:06:10.015Z,132.13
2019-02-16T04:08:40.172Z,137.63
2019-02-16T04:11:10.470Z,137.47
2019-02-16T04:13:40.557Z,151.00
2019-02-16T04:16:10.742Z,130.73
2019-02-16T04:18:40.964Z,138.50
2019-02-16T04:21:11.125Z,135.63
2019-02-16T04:23:41.312Z,139.10
2019-02-16T04:26:11.576Z,149.77
2019-02-16T04:28:42.808Z,153.60
2019-02-16T04:31:12.995Z,150.67
2019-02-16T04:33:43.194Z,139.37
2019-02-16T04:36:13.404Z,124.90
2019-02-16T04:38:43.641Z,135.70
2019-02-16T04:41:13.861Z,141.73
2019-02-16T04:43:44.017Z,140.90
2019-02-16T04:46:14.220Z,131.50
2019-02-16T04:48:44.505Z,133.10
2019-02-16T04:51:14.578Z,133.03
2019-02-16T04:53:44.765Z,132.83
2019-02-16T04:56:15.050Z,142.93
2019-02-16T04:58:45.142Z,133.70
2019-02-16T05:01:15.352Z,133.93
2019-02-16T05:03:45.614Z,134.30
2019-02-16T05:06:15.642Z,132.57
2019-02-16T05:08:45.865Z,127.03
2019-02-16T05:11:16.165Z,128.63
2019-02-16T05:13:46.190Z,131.00
2019-02-16T05:16:16.259Z,137.57
2019-02-16T05:18:46.900Z,132.03
2019-02-16T05:21:17.320Z,137.13
2019-02-16T05:23:47.479Z,145.93
2019-02-16T05:26:17.638Z,151.80
2019-02-16T05:28:47.761Z,141.80
2019-02-16T05:31:19.019Z,141.57
2019-02-16T05:33:49.285Z,139.13
2019-02-16T05:36:19.473Z,135.23
2019-02-16T05:38:49.661Z,134.60
2019-02-16T05:41:20.111Z,126.97
2019-02-16T05:43:50.335Z,135.93
2019-02-16T05:46:20.558Z,139.20
2019-02-16T05:48:50.778Z,136.13
2019-02-16T05:51:20.916Z,139.70
2019-02-16T05:53:51.545Z,138.57
2019-02-16T05:56:21.814Z,144.30
2019-02-16T05:58:52.134Z,136.40
2019-02-16T06:01:22.274Z,141.60
2019-02-16T06:03:52.564Z,145.17
2019-02-16T06:06:22.837Z,145.73
2019-02-16T06:08:53.005Z,137.33
2019-02-16T06:11:23.234Z,141.77
2019-02-16T06:13:53.482Z,143.77
2019-02-16T06:16:23.637Z,152.57
2019-02-16T06:18:53.743Z,157.23
2019-02-16T06:21:23.949Z,153.93
2019-02-16T06:23:54.244Z,144.60
2019-02-16T06:26:24.487Z,146.67
2019-02-16T06:28:54.714Z,147.97
2019-02-16T06:31:24.930Z,141.17
2019-02-16T06:33:56.130Z,154.70
2019-02-16T06:36:33.021Z,153.07
2019-02-16T06:39:04.860Z,152.17
2019-02-16T06:41:34.881Z,147.57
2019-02-16T06:44:04.965Z,142.40
2019-02-16T06:46:35.247Z,141.97
2019-02-16T06:49:05.419Z,141.40
2019-02-16T06:51:35.585Z,145.73
2019-02-16T06:54:05.891Z,143.43
2019-02-16T06:56:45.801Z,135.50
2019-02-16T06:59:16.009Z,132.20
2019-02-16T07:01:46.156Z,143.53
2019-02-16T07:04:16.268Z,134.53
2019-02-16T07:06:46.676Z,136.57
2019-02-16T07:09:17.067Z,133.80
2019-02-16T07:11:47.141Z,129.30
2019-02-16T07:14:17.395Z,133.03
2019-02-16T07:16:53.485Z,134.20
2019-02-16T07:19:29.813Z,131.67
2019-02-16T07:21:59.918Z,138.87
2019-02-16T07:24:30.055Z,126.30
2019-02-16T07:27:00.286Z,131.37
2019-02-16T07:29:30.537Z,132.07
2019-02-16T07:32:00.802Z,128.60
2019-02-16T07:34:34.459Z,135.00
2019-02-16T07:37:05.444Z,136.27
2019-02-16T07:39:35.624Z,130.87
2019-02-16T07:42:05.921Z,134.17
2019-02-16T07:44:45.368Z,119.20
2019-02-16T07:47:40.665Z,123.20
2019-02-16T07:50:17.623Z,124.93
2019-02-16T07:53:05.375Z,125.13
2019-02-16T07:55:49.422Z,121.07
2019-02-16T07:58:33.571Z,113.50
2019-02-16T08:01:25.709Z,121.87
2019-02-16T08:04:02.155Z,123.00
2019-02-16T08:06:54.307Z,133.60
2019-02-16T08:09:39.784Z,119.13
2019-02-16T08:12:23.203Z,124.10
2019-02-16T08:15:11.870Z,111.53
2019-02-16T08:17:48.952Z,117.83
2019-02-16T08:20:28.800Z,113.97
2019-02-16T08:23:17.968Z,117.63
2019-02-16T08:26:19.213Z,117.57
2019-02-16T08:29:14.113Z,116.87
2019-02-16T08:32:18.536Z,117.00
2019-02-16T08:34:57.154Z,114.43
2019-02-16T08:37:46.912Z,117.90
2019-02-16T08:40:27.701Z,121.80
2019-02-16T08:43:07.855Z,113.73
2019-02-16T08:49:18.238Z,109.23
2019-02-16T08:51:53.865Z,112.80
2019-02-16T08:54:46.125Z,106.47
2019-02-16T08:57:35.185Z,115.97
2019-02-16T09:00:30.289Z,115.90
2019-02-16T09:03:09.625Z,106.60
2019-02-16T09:06:05.036Z,109.00
2019-02-16T09:09:03.428Z,105.23
2019-02-16T09:12:10.708Z,108.90
2019-02-16T09:14:59.874Z,110.30
2019-02-16T09:17:48.735Z,110.77
2019-02-16T09:20:37.080Z,95.10
2019-02-16T09:24:00.355Z,104.70
2019-02-16T09:26:48.896Z,106.27
2019-02-16T09:29:46.762Z,109.37
2019-02-16T09:32:38.795Z,105.43
2019-02-16T09:35:34.110Z,105.37
2019-02-16T09:38:28.901Z,103.67
2019-02-16T09:41:25.028Z,107.37
2019-02-16T09:44:20.749Z,102.63
2019-02-16T09:47:19.026Z,109.83
2019-02-16T09:50:01.332Z,104.80
2019-02-16T09:52:49.474Z,97.13
2019-02-16T09:55:57.069Z,105.37
2019-02-16T09:58:42.348Z,102.77
2019-02-16T10:01:31.304Z,105.50
2019-02-16T10:04:20.368Z,101.83
2019-02-16T10:07:07.998Z,101.10
2019-02-16T10:09:53.045Z,103.83
2019-02-16T10:12:38.944Z,105.00
2019-02-16T10:15:41.234Z,98.83
2019-02-16T10:18:33.567Z,109.53
2019-02-16T10:21:22.734Z,97.67
2019-02-16T10:24:17.339Z,102.03
2019-02-16T10:26:47.529Z,101.87
2019-02-16T10:29:36.711Z,106.53
2019-02-16T10:32:28.950Z,104.67
2019-02-16T10:35:24.257Z,104.57
2019-02-16T10:38:01.855Z,99.60
2019-02-16T10:41:06.072Z,110.67
2019-02-16T10:44:04.457Z,103.47
2019-02-16T10:46:59.453Z,100.67
2019-02-16T10:49:56.401Z,105.47
2019-02-16T10:52:46.079Z,101.83
2019-02-16T10:55:33.708Z,100.47
2019-02-16T10:58:13.250Z,107.53
2019-02-16T11:01:02.310Z,98.23
2019-02-16T11:03:50.249Z,100.03
2019-02-16T11:06:25.703Z,93.17
2019-02-16T11:09:01.958Z,100.67
2019-02-16T11:11:43.057Z,103.90
2019-02-16T11:14:29.533Z,97.50
2019-02-16T11:17:18.597Z,102.43
2019-02-16T11:20:06.327Z,100.03
2019-02-16T11:22:59.896Z,102.33
2019-02-16T11:26:07.698Z,105.53
2019-02-16T11:28:56.660Z,99.13
2019-02-16T11:31:45.828Z,104.47
2019-02-16T11:34:32.018Z,108.07
2019-02-16T11:37:08.213Z,103.47
2019-02-16T11:39:59.803Z,101.10
2019-02-16T11:42:50.899Z,100.73
2019-02-16T11:45:41.308Z,102.87
2019-02-16T11:48:42.249Z,100.77
2019-02-16T11:51:25.167Z,101.87
2019-02-16T11:54:05.426Z,102.53
2019-02-16T11:57:09.131Z,103.80
2019-02-16T11:59:59.612Z,107.73
2019-02-16T12:02:54.834Z,102.67
2019-02-16T12:05:31.098Z,99.83
2019-02-16T12:08:08.998Z,110.93
2019-02-16T12:11:01.231Z,105.73
2019-02-16T12:13:50.506Z,107.10
2019-02-16T12:16:36.699Z,98.27
2019-02-16T12:19:25.968Z,99.73
2019-02-16T12:22:15.240Z,112.27
2019-02-16T12:25:05.009Z,103.70
2019-02-16T12:28:04.726Z,100.67
2019-02-16T12:30:42.422Z,107.40
2019-02-16T12:33:36.809Z,105.50
2019-02-16T12:36:32.015Z,104.93
2019-02-16T12:39:23.948Z,105.70
2019-02-16T12:42:06.866Z,104.83
2019-02-16T12:45:14.259Z,103.97
2019-02-16T12:47:57.178Z,106.27
2019-02-16T12:50:52.282Z,111.00
2019-02-16T12:53:44.416Z,109.37
2019-02-16T12:56:20.769Z,113.87
2019-02-16T12:59:06.567Z,105.77
2019-02-16T13:02:13.962Z,112.37
2019-02-16T13:05:08.758Z,117.33
2019-02-16T13:07:57.832Z,107.90
2019-02-16T13:10:59.490Z,108.23
2019-02-16T13:13:42.398Z,107.27
2019-02-16T13:16:19.163Z,109.07
2019-02-16T13:19:07.116Z,109.03
2019-02-16T13:21:57.798Z,114.43
2019-02-16T13:24:46.977Z,110.37
2019-02-16T13:27:42.490Z,105.27
2019-02-16T13:30:47.118Z,109.53
2019-02-16T13:33:36.384Z,107.27
2019-02-16T13:36:18.592Z,109.27
2019-02-16T13:39:19.836Z,108.57
2019-02-16T13:41:58.908Z,104.47
2019-02-16T13:44:52.624Z,107.77
2019-02-16T13:47:37.277Z,105.37
2019-02-16T13:50:36.499Z,101.37
2019-02-16T13:53:16.241Z,104.37
2019-02-16T13:56:17.696Z,103.40
2019-02-16T13:59:06.758Z,112.67
2019-02-16T14:02:00.660Z,106.27
2019-02-16T14:04:39.146Z,107.83
2019-02-16T14:07:28.312Z,107.32
2019-02-16T14:10:17.272Z,102.40
2019-02-16T14:12:53.932Z,112.27
2019-02-16T14:15:49.154Z,101.02
2019-02-16T14:18:19.481Z,94.47
2019-02-16T14:20:49.697Z,108.32
2019-02-16T14:23:19.904Z,97.70
2019-02-16T14:25:50.723Z,98.82
2019-02-16T14:28:20.914Z,95.80
2019-02-16T14:30:51.086Z,98.00
2019-02-16T14:33:21.239Z,96.40
2019-02-16T14:35:51.492Z,99.07
2019-02-16T14:38:46.333Z,102.75
2019-02-16T14:41:16.532Z,100.47
2019-02-16T14:43:46.697Z,103.78
2019-02-16T14:46:16.980Z,101.80
2019-02-16T14:48:47.116Z,100.22
2019-02-16T14:51:18.281Z,101.33
2019-02-16T14:53:48.529Z,109.65
2019-02-16T14:56:18.803Z,98.07
2019-02-16T14:58:48.966Z,99.95
2019-02-16T15:01:19.164Z,98.87
2019-02-16T15:03:49.317Z,101.45
2019-02-16T15:06:19.519Z,108.45
2019-02-16T15:08:49.796Z,107.92
2019-02-16T15:11:20.052Z,106.00
2019-02-16T15:13:50.558Z,100.40
2019-02-16T15:16:20.758Z,97.62
2019-02-16T15:18:50.933Z,94.72
2019-02-16T15:21:21.102Z,99.67
2019-02-16T15:23:51.432Z,97.88
2019-02-16T15:26:28.423Z,98.95
2019-02-16T15:28:53.408Z,98.67
2019-02-16T15:31:23.571Z,93.85
2019-02-16T15:33:53.698Z,102.92
2019-02-16T15:36:24.394Z,111.50
2019-02-16T15:38:54.785Z,109.97
2019-02-16T15:41:24.913Z,105.67
2019-02-16T15:43:55.087Z,99.15
2019-02-16T15:46:25.383Z,107.07
2019-02-16T15:48:55.564Z,105.60
2019-02-16T15:51:25.708Z,107.92
2019-02-16T15:53:56.860Z,108.87
2019-02-16T15:56:26.965Z,106.43
2019-02-16T15:58:57.074Z,109.63
2019-02-16T16:01:27.794Z,118.53
2019-02-16T16:03:58.020Z,116.30
2019-02-16T16:06:28.324Z,116.90
2019-02-16T16:09:16.312Z,106.70
2019-02-16T16:12:05.483Z,100.97
2019-02-16T16:15:06.662Z,102.90
2019-02-16T16:17:48.601Z,105.13
2019-02-16T16:20:30.365Z,102.63
2019-02-16T16:23:26.441Z,109.47
2019-02-16T16:26:19.236Z,104.60
2019-02-16T16:29:07.435Z,109.43
2019-02-16T16:31:54.334Z,117.63
2019-02-16T16:34:53.239Z,135.97
2019-02-16T16:37:55.511Z,143.83
2019-02-16T16:40:44.574Z,127.30
2019-02-16T16:43:29.952Z,140.20
2019-02-16T16:46:26.286Z,152.03
2019-02-16T16:49:25.793Z,124.27
2019-02-16T16:52:34.208Z,129.77
2019-02-16T16:55:14.556Z,118.67
2019-02-16T16:58:04.348Z,129.13
2019-02-16T17:00:56.074Z,114.27
2019-02-16T17:03:54.248Z,124.53
2019-02-16T17:06:42.698Z,126.17
2019-02-16T17:09:44.967Z,106.60
2019-02-16T17:12:25.329Z,117.77
2019-02-16T17:15:26.474Z,103.90
2019-02-16T17:18:13.284Z,110.07
2019-02-16T17:21:09.413Z,111.10
2019-02-16T17:24:02.571Z,109.90
2019-02-16T17:27:07.812Z,116.00
2019-02-16T17:30:04.151Z,125.93
2019-02-16T17:32:57.610Z,117.73
2019-02-16T17:35:46.471Z,121.80
2019-02-16T17:38:31.744Z,106.73
2019-02-16T17:41:21.627Z,117.80
2019-02-16T17:44:03.300Z,114.57
2019-02-16T17:47:02.515Z,160.07
2019-02-16T17:49:57.931Z,121.57
2019-02-16T17:52:54.363Z,118.70
2019-02-16T17:55:47.931Z,117.13
2019-02-16T17:58:31.279Z,133.00
2019-02-16T18:01:20.119Z,118.63
2019-02-16T18:04:09.078Z,124.10
2019-02-16T18:07:02.544Z,134.27
2019-02-16T18:09:55.908Z,116.33
2019-02-16T18:12:55.108Z,174.63
2019-02-16T18:15:44.171Z,132.17
2019-02-16T18:18:34.462Z,125.50
2019-02-16T18:21:18.422Z,119.97
2019-02-16T18:24:07.323Z,122.80
2019-02-16T18:26:56.932Z,130.60
2019-02-16T18:29:54.706Z,111.13
2019-02-16T18:32:44.692Z,123.57
2019-02-16T18:35:47.271Z,116.13
2019-02-16T18:38:33.614Z,116.53
2019-02-16T18:41:24.171Z,115.83
2019-02-16T18:44:14.466Z,116.83
2019-02-16T18:47:10.609Z,124.23
2019-02-16T18:50:07.946Z,124.63
2019-02-16T18:52:58.238Z,127.13
2019-02-16T18:55:57.335Z,127.33
2019-02-16T18:58:53.567Z,115.30
2019-02-16T19:01:42.326Z,122.33
2019-02-16T19:04:38.533Z,128.67
2019-02-16T19:07:17.124Z,140.03
2019-02-16T19:10:06.131Z,116.73
2019-02-16T19:13:11.988Z,113.60
2019-02-16T19:15:50.184Z,130.00
2019-02-16T19:18:38.009Z,153.17
2019-02-16T19:21:16.956Z,131.83
2019-02-16T19:24:09.909Z,151.23
2019-02-16T19:27:16.643Z,130.87
2019-02-16T19:30:02.575Z,135.17
2019-02-16T19:32:52.355Z,130.27
2019-02-16T19:35:43.362Z,134.67
2019-02-16T19:38:29.901Z,161.27
2019-02-16T19:41:20.464Z,182.40
2019-02-16T19:44:01.030Z,201.13
2019-02-16T19:46:51.628Z,187.53
2019-02-16T19:49:40.337Z,169.47
2019-02-16T19:52:39.993Z,189.17
2019-02-16T19:55:32.017Z,211.07
2019-02-16T19:58:38.189Z,176.73
2019-02-16T20:01:19.453Z,244.23
2019-02-16T20:04:01.862Z,253.60
2019-02-16T20:06:48.951Z,206.80
2019-02-16T20:09:35.776Z,182.10
2019-02-16T20:12:29.477Z,190.10
2019-02-16T20:15:32.241Z,179.23
2019-02-16T20:18:21.834Z,168.93
2019-02-16T20:21:24.489Z,159.73
2019-02-16T20:24:13.886Z,159.30
2019-02-16T20:26:53.987Z,171.17
2019-02-16T20:29:46.892Z,154.17
2019-02-16T20:32:40.357Z,163.33
2019-02-16T20:35:30.444Z,181.27
2019-02-16T20:38:33.330Z,176.93
2019-02-16T20:41:26.283Z,187.77
2019-02-16T20:44:19.648Z,168.10
2019-02-16T20:47:02.342Z,160.23
2019-02-16T20:49:51.733Z,172.00
2019-02-16T20:52:41.820Z,162.07
2019-02-16T20:55:26.531Z,174.50
2019-02-16T20:58:22.711Z,186.67
2019-02-16T21:01:12.796Z,170.47
2019-02-16T21:03:58.674Z,151.40
2019-02-16T21:06:37.905Z,180.57
2019-02-16T21:09:21.538Z,178.10
2019-02-16T21:12:11.725Z,179.60
2019-02-16T21:14:53.217Z,166.47
2019-02-16T21:17:47.559Z,138.53
2019-02-16T21:20:43.743Z,159.57
2019-02-16T21:23:36.493Z,150.80
2019-02-16T21:26:37.201Z,193.27
2019-02-16T21:29:27.318Z,150.33
2019-02-16T21:32:17.505Z,173.57
2019-02-16T21:35:07.694Z,162.10
2019-02-16T21:38:00.342Z,169.87
2019-02-16T21:40:45.088Z,145.37
2019-02-16T21:43:40.515Z,181.60
2019-02-16T21:46:28.451Z,176.03
2019-02-16T21:49:16.491Z,168.67
2019-02-16T21:52:14.567Z,141.90
2019-02-16T21:55:03.626Z,181.00
2019-02-16T21:57:52.792Z,169.57
2019-02-16T22:00:45.029Z,182.53
2019-02-16T22:03:49.657Z,171.03
2019-02-16T22:06:44.659Z,180.73
2019-02-16T22:09:25.620Z,154.83
2019-02-16T22:12:14.796Z,177.20
2019-02-16T22:14:45.102Z,161.93
2019-02-16T22:17:15.262Z,172.50
2019-02-16T22:19:45.439Z,176.50
2019-02-16T22:22:15.668Z,183.43
2019-02-16T22:24:49.066Z,139.97
2019-02-16T22:27:19.329Z,167.80
2019-02-16T22:29:49.735Z,180.83
2019-02-16T22:32:20.170Z,200.73
2019-02-16T22:34:50.356Z,177.37
2019-02-16T22:37:20.642Z,205.43
2019-02-16T22:39:50.951Z,173.27
2019-02-16T22:42:22.254Z,177.23
2019-02-16T22:44:52.376Z,199.17
2019-02-16T22:47:22.488Z,181.20
2019-02-16T22:49:52.704Z,182.17
2019-02-16T22:52:22.931Z,188.57
2019-02-16T22:54:53.048Z,161.33
2019-02-16T22:57:23.364Z,172.23
2019-02-16T22:59:53.547Z,202.80
2019-02-16T23:02:23.677Z,166.63
2019-02-16T23:04:53.947Z,153.40
2019-02-16T23:07:24.170Z,163.63
2019-02-16T23:09:54.594Z,193.07
2019-02-16T23:12:25.065Z,185.97
2019-02-16T23:14:55.212Z,190.23
2019-02-16T23:17:25.382Z,167.23
2019-02-16T23:19:55.604Z,185.20
2019-02-16T23:22:25.781Z,169.87
2019-02-16T23:24:55.954Z,173.20
2019-02-16T23:27:26.233Z,210.30
2019-02-16T23:29:56.392Z,197.83
2019-02-16T23:32:26.629Z,210.07
2019-02-16T23:34:56.894Z,191.53
2019-02-16T23:37:27.130Z,142.70
2019-02-16T23:39:57.305Z,182.10
2019-02-16T23:42:27.575Z,144.23
2019-02-16T23:44:57.835Z,212.23
2019-02-16T23:47:28.015Z,214.87
2019-02-16T23:49:58.235Z,233.80
2019-02-16T23:52:28.493Z,199.27
2019-02-16T23:54:58.701Z,153.40
2019-02-16T23:57:28.930Z,220.27
2019-02-16T23:59:59.164Z,176.87
